sensor_id;sensor_type;location;lat;lon;timestamp;temperature;humidity
45383;DHT22;42455;51.660;5.824;2023-12-20T00:01:29;9.8;98.5
45383;DHT22;42455;51.660;5.824;2023-12-20T00:06:35;9.8;98.5
45383;DHT22;42455;51.660;5.824;2023-12-20T00:11:41;9.8;98.5
45383;DHT22;42455;51.660;5.824;2023-12-20T00:16:47;9.7;98.5
45383;DHT22;42455;51.660;5.824;2023-12-20T00:21:53;9.6;98.5
45383;DHT22;42455;51.660;5.824;2023-12-20T00:27:00;9.5;98.5
45383;DHT22;42455;51.660;5.824;2023-12-20T00:32:06;9.4;98.5
45383;DHT22;42455;51.660;5.824;2023-12-20T00:37:12;9.3;98.5
45383;DHT22;42455;51.660;5.824;2023-12-20T00:42:18;9.3;98.5
45383;DHT22;42455;51.660;5.824;2023-12-20T00:47:25;9.2;98.5
45383;DHT22;42455;51.660;5.824;2023-12-20T00:52:31;9.2;98.5
45383;DHT22;42455;51.660;5.824;2023-12-20T00:57:37;9.2;98.5
45383;DHT22;42455;51.660;5.824;2023-12-20T01:02:43;9.1;98.5
45383;DHT22;42455;51.660;5.824;2023-12-20T01:07:49;9.0;98.5
45383;DHT22;42455;51.660;5.824;2023-12-20T01:12:56;9.0;98.5
45383;DHT22;42455;51.660;5.824;2023-12-20T01:18:02;8.9;98.5
45383;DHT22;42455;51.660;5.824;2023-12-20T01:23:08;8.8;98.5
45383;DHT22;42455;51.660;5.824;2023-12-20T01:28:14;8.8;98.5
45383;DHT22;42455;51.660;5.824;2023-12-20T01:33:20;8.7;98.5
45383;DHT22;42455;51.660;5.824;2023-12-20T01:38:27;8.7;98.5
45383;DHT22;42455;51.660;5.824;2023-12-20T01:43:33;8.6;98.5
45383;DHT22;42455;51.660;5.824;2023-12-20T01:48:39;8.6;98.5
45383;DHT22;42455;51.660;5.824;2023-12-20T01:53:46;8.6;98.5
45383;DHT22;42455;51.660;5.824;2023-12-20T01:58:51;8.6;98.5
45383;DHT22;42455;51.660;5.824;2023-12-20T02:03:58;8.6;98.5
45383;DHT22;42455;51.660;5.824;2023-12-20T02:09:04;8.6;98.5
45383;DHT22;42455;51.660;5.824;2023-12-20T02:14:10;8.5;98.5
45383;DHT22;42455;51.660;5.824;2023-12-20T02:19:17;8.5;98.5
45383;DHT22;42455;51.660;5.824;2023-12-20T02:24:23;8.4;98.5
45383;DHT22;42455;51.660;5.824;2023-12-20T02:29:29;8.4;98.5
45383;DHT22;42455;51.660;5.824;2023-12-20T02:34:35;8.4;98.5
45383;DHT22;42455;51.660;5.824;2023-12-20T02:39:41;8.3;98.5
45383;DHT22;42455;51.660;5.824;2023-12-20T02:44:47;8.3;98.5
45383;DHT22;42455;51.660;5.824;2023-12-20T02:49:54;8.2;98.5
45383;DHT22;42455;51.660;5.824;2023-12-20T02:55:00;8.2;98.5
45383;DHT22;42455;51.660;5.824;2023-12-20T03:00:07;8.1;98.5
45383;DHT22;42455;51.660;5.824;2023-12-20T03:05:12;8.1;98.5
45383;DHT22;42455;51.660;5.824;2023-12-20T03:10:18;8.1;98.5
45383;DHT22;42455;51.660;5.824;2023-12-20T03:15:25;8.1;98.5
45383;DHT22;42455;51.660;5.824;2023-12-20T03:20:31;8.1;98.5
45383;DHT22;42455;51.660;5.824;2023-12-20T03:25:37;8.0;98.5
45383;DHT22;42455;51.660;5.824;2023-12-20T03:30:43;8.0;98.5
45383;DHT22;42455;51.660;5.824;2023-12-20T03:35:49;8.0;98.5
45383;DHT22;42455;51.660;5.824;2023-12-20T03:40:56;8.0;98.5
45383;DHT22;42455;51.660;5.824;2023-12-20T03:46:03;8.0;98.5
45383;DHT22;42455;51.660;5.824;2023-12-20T03:51:08;7.9;98.5
45383;DHT22;42455;51.660;5.824;2023-12-20T03:56:14;7.9;98.5
45383;DHT22;42455;51.660;5.824;2023-12-20T04:01:20;7.9;98.5
45383;DHT22;42455;51.660;5.824;2023-12-20T04:06:27;7.9;98.5
45383;DHT22;42455;51.660;5.824;2023-12-20T04:11:33;7.9;98.5
45383;DHT22;42455;51.660;5.824;2023-12-20T04:16:39;7.9;98.5
45383;DHT22;42455;51.660;5.824;2023-12-20T04:21:45;7.9;98.5
45383;DHT22;42455;51.660;5.824;2023-12-20T04:26:52;8.0;98.5
45383;DHT22;42455;51.660;5.824;2023-12-20T04:31:58;8.0;98.5
45383;DHT22;42455;51.660;5.824;2023-12-20T04:37:03;8.1;98.5
45383;DHT22;42455;51.660;5.824;2023-12-20T04:42:09;8.1;98.5
45383;DHT22;42455;51.660;5.824;2023-12-20T04:47:15;8.2;98.5
45383;DHT22;42455;51.660;5.824;2023-12-20T04:52:22;8.2;98.5
45383;DHT22;42455;51.660;5.824;2023-12-20T04:57:28;8.3;98.5
45383;DHT22;42455;51.660;5.824;2023-12-20T05:02:33;8.4;98.5
45383;DHT22;42455;51.660;5.824;2023-12-20T05:07:39;8.4;98.5
45383;DHT22;42455;51.660;5.824;2023-12-20T05:12:45;8.4;98.5
45383;DHT22;42455;51.660;5.824;2023-12-20T05:17:52;8.5;98.5
45383;DHT22;42455;51.660;5.824;2023-12-20T05:22:58;8.5;98.5
45383;DHT22;42455;51.660;5.824;2023-12-20T05:28:04;8.5;98.5
45383;DHT22;42455;51.660;5.824;2023-12-20T05:33:10;8.5;98.5
45383;DHT22;42455;51.660;5.824;2023-12-20T05:38:17;8.6;98.5
45383;DHT22;42455;51.660;5.824;2023-12-20T05:43:23;8.6;98.5
45383;DHT22;42455;51.660;5.824;2023-12-20T05:48:29;8.6;98.5
45383;DHT22;42455;51.660;5.824;2023-12-20T05:53:35;8.7;98.5
45383;DHT22;42455;51.660;5.824;2023-12-20T05:58:41;8.7;98.5
45383;DHT22;42455;51.660;5.824;2023-12-20T06:03:47;8.8;98.5
45383;DHT22;42455;51.660;5.824;2023-12-20T06:08:54;8.8;98.5
45383;DHT22;42455;51.660;5.824;2023-12-20T06:14:00;8.8;98.5
45383;DHT22;42455;51.660;5.824;2023-12-20T06:19:06;8.9;98.5
45383;DHT22;42455;51.660;5.824;2023-12-20T06:24:12;8.9;98.5
45383;DHT22;42455;51.660;5.824;2023-12-20T06:29:19;9.0;98.5
45383;DHT22;42455;51.660;5.824;2023-12-20T06:34:25;9.0;98.5
45383;DHT22;42455;51.660;5.824;2023-12-20T06:39:31;9.0;98.5
45383;DHT22;42455;51.660;5.824;2023-12-20T06:44:37;9.0;98.5
45383;DHT22;42455;51.660;5.824;2023-12-20T06:54:50;9.0;98.5
45383;DHT22;42455;51.660;5.824;2023-12-20T06:59:56;9.0;98.5
45383;DHT22;42455;51.660;5.824;2023-12-20T07:05:02;9.0;98.5
45383;DHT22;42455;51.660;5.824;2023-12-20T07:10:08;9.0;98.5
45383;DHT22;42455;51.660;5.824;2023-12-20T07:15:14;9.0;98.5
45383;DHT22;42455;51.660;5.824;2023-12-20T07:20:21;9.0;98.5
45383;DHT22;42455;51.660;5.824;2023-12-20T07:25:27;9.0;98.5
45383;DHT22;42455;51.660;5.824;2023-12-20T07:30:33;9.0;98.5
45383;DHT22;42455;51.660;5.824;2023-12-20T07:35:39;8.9;98.5
45383;DHT22;42455;51.660;5.824;2023-12-20T07:40:45;8.9;98.5
45383;DHT22;42455;51.660;5.824;2023-12-20T07:45:52;8.9;98.5
45383;DHT22;42455;51.660;5.824;2023-12-20T07:50:58;8.9;98.5
45383;DHT22;42455;51.660;5.824;2023-12-20T07:56:13;8.9;98.5
45383;DHT22;42455;51.660;5.824;2023-12-20T08:06:16;8.8;98.5
45383;DHT22;42455;51.660;5.824;2023-12-20T08:11:23;8.8;98.5
45383;DHT22;42455;51.660;5.824;2023-12-20T08:16:29;8.8;98.5
45383;DHT22;42455;51.660;5.824;2023-12-20T08:21:35;8.8;98.5
45383;DHT22;42455;51.660;5.824;2023-12-20T08:26:41;8.8;98.5
45383;DHT22;42455;51.660;5.824;2023-12-20T08:31:51;8.8;98.5
45383;DHT22;42455;51.660;5.824;2023-12-20T08:36:54;8.8;98.5
45383;DHT22;42455;51.660;5.824;2023-12-20T08:42:00;8.9;98.5
45383;DHT22;42455;51.660;5.824;2023-12-20T08:47:06;8.9;98.5
45383;DHT22;42455;51.660;5.824;2023-12-20T08:52:12;8.9;98.5
45383;DHT22;42455;51.660;5.824;2023-12-20T08:57:19;9.0;98.5
45383;DHT22;42455;51.660;5.824;2023-12-20T09:02:25;9.0;98.5
45383;DHT22;42455;51.660;5.824;2023-12-20T09:07:31;9.0;98.5
45383;DHT22;42455;51.660;5.824;2023-12-20T09:12:37;9.1;98.5
45383;DHT22;42455;51.660;5.824;2023-12-20T09:17:43;9.1;98.5
45383;DHT22;42455;51.660;5.824;2023-12-20T09:22:50;9.2;98.5
45383;DHT22;42455;51.660;5.824;2023-12-20T09:27:56;9.2;98.5
45383;DHT22;42455;51.660;5.824;2023-12-20T09:33:02;9.2;98.5
45383;DHT22;42455;51.660;5.824;2023-12-20T09:38:08;9.3;98.5
45383;DHT22;42455;51.660;5.824;2023-12-20T09:43:18;9.3;98.5
45383;DHT22;42455;51.660;5.824;2023-12-20T09:48:21;9.4;98.5
45383;DHT22;42455;51.660;5.824;2023-12-20T09:53:28;9.4;98.5
45383;DHT22;42455;51.660;5.824;2023-12-20T09:58:35;9.4;98.5
45383;DHT22;42455;51.660;5.824;2023-12-20T10:03:40;9.5;98.5
45383;DHT22;42455;51.660;5.824;2023-12-20T10:08:45;9.5;98.5
45383;DHT22;42455;51.660;5.824;2023-12-20T10:13:52;9.5;98.5
45383;DHT22;42455;51.660;5.824;2023-12-20T10:18:59;9.5;98.5
45383;DHT22;42455;51.660;5.824;2023-12-20T10:24:04;9.5;98.5
45383;DHT22;42455;51.660;5.824;2023-12-20T10:29:10;9.6;98.5
45383;DHT22;42455;51.660;5.824;2023-12-20T10:34:16;9.6;98.5
45383;DHT22;42455;51.660;5.824;2023-12-20T10:39:22;9.6;98.5
45383;DHT22;42455;51.660;5.824;2023-12-20T10:44:28;9.7;98.5
45383;DHT22;42455;51.660;5.824;2023-12-20T10:49:37;9.7;98.5
45383;DHT22;42455;51.660;5.824;2023-12-20T10:54:40;9.7;98.5
45383;DHT22;42455;51.660;5.824;2023-12-20T10:59:49;9.7;98.5
45383;DHT22;42455;51.660;5.824;2023-12-20T11:05:06;9.8;98.5
45383;DHT22;42455;51.660;5.824;2023-12-20T11:12:13;9.8;98.5
45383;DHT22;42455;51.660;5.824;2023-12-20T11:15:21;9.9;98.5
45383;DHT22;42455;51.660;5.824;2023-12-20T11:20:12;9.9;98.5
45383;DHT22;42455;51.660;5.824;2023-12-20T11:25:18;10.0;98.5
45383;DHT22;42455;51.660;5.824;2023-12-20T11:30:24;10.0;98.5
45383;DHT22;42455;51.660;5.824;2023-12-20T11:35:30;10.1;98.5
45383;DHT22;42455;51.660;5.824;2023-12-20T11:40:37;10.1;98.5
45383;DHT22;42455;51.660;5.824;2023-12-20T11:45:49;10.2;98.5
45383;DHT22;42455;51.660;5.824;2023-12-20T11:50:49;10.2;98.5
45383;DHT22;42455;51.660;5.824;2023-12-20T11:55:55;10.2;98.5
45383;DHT22;42455;51.660;5.824;2023-12-20T12:01:01;10.2;98.5
45383;DHT22;42455;51.660;5.824;2023-12-20T12:06:07;10.2;98.5
45383;DHT22;42455;51.660;5.824;2023-12-20T12:11:13;10.2;98.5
45383;DHT22;42455;51.660;5.824;2023-12-20T12:16:20;10.2;98.5
45383;DHT22;42455;51.660;5.824;2023-12-20T12:21:26;10.2;98.5
45383;DHT22;42455;51.660;5.824;2023-12-20T12:26:32;10.3;98.5
45383;DHT22;42455;51.660;5.824;2023-12-20T12:31:38;10.3;98.5
45383;DHT22;42455;51.660;5.824;2023-12-20T12:36:44;10.3;98.5
45383;DHT22;42455;51.660;5.824;2023-12-20T12:41:51;10.3;98.5
45383;DHT22;42455;51.660;5.824;2023-12-20T12:46:57;10.3;98.5
45383;DHT22;42455;51.660;5.824;2023-12-20T12:52:03;10.3;98.5
45383;DHT22;42455;51.660;5.824;2023-12-20T12:57:10;10.3;98.5
45383;DHT22;42455;51.660;5.824;2023-12-20T13:02:16;10.3;98.5
45383;DHT22;42455;51.660;5.824;2023-12-20T13:07:22;10.3;98.5
45383;DHT22;42455;51.660;5.824;2023-12-20T13:12:28;10.3;98.5
45383;DHT22;42455;51.660;5.824;2023-12-20T13:17:34;10.3;98.5
45383;DHT22;42455;51.660;5.824;2023-12-20T13:22:40;10.3;98.5
45383;DHT22;42455;51.660;5.824;2023-12-20T13:27:47;10.3;98.5
45383;DHT22;42455;51.660;5.824;2023-12-20T13:32:53;10.3;98.5
45383;DHT22;42455;51.660;5.824;2023-12-20T13:37:59;10.3;98.5
45383;DHT22;42455;51.660;5.824;2023-12-20T13:43:05;10.3;98.5
45383;DHT22;42455;51.660;5.824;2023-12-20T13:48:11;10.3;98.5
45383;DHT22;42455;51.660;5.824;2023-12-20T13:53:18;10.2;98.5
45383;DHT22;42455;51.660;5.824;2023-12-20T13:58:24;10.2;98.5
45383;DHT22;42455;51.660;5.824;2023-12-20T14:03:30;10.2;98.5
45383;DHT22;42455;51.660;5.824;2023-12-20T14:08:36;10.2;98.5
45383;DHT22;42455;51.660;5.824;2023-12-20T14:13:43;10.2;98.5
45383;DHT22;42455;51.660;5.824;2023-12-20T14:18:49;10.3;98.5
45383;DHT22;42455;51.660;5.824;2023-12-20T14:23:55;10.3;98.5
45383;DHT22;42455;51.660;5.824;2023-12-20T14:29:01;10.3;98.5
45383;DHT22;42455;51.660;5.824;2023-12-20T14:34:07;10.3;98.5
45383;DHT22;42455;51.660;5.824;2023-12-20T14:39:13;10.4;98.5
45383;DHT22;42455;51.660;5.824;2023-12-20T14:44:20;10.4;98.5
45383;DHT22;42455;51.660;5.824;2023-12-20T14:49:26;10.4;98.5
45383;DHT22;42455;51.660;5.824;2023-12-20T14:54:32;10.4;98.5
45383;DHT22;42455;51.660;5.824;2023-12-20T14:59:38;10.4;98.5
45383;DHT22;42455;51.660;5.824;2023-12-20T15:04:45;10.4;98.5
45383;DHT22;42455;51.660;5.824;2023-12-20T15:09:51;10.4;98.5
45383;DHT22;42455;51.660;5.824;2023-12-20T15:14:57;10.4;98.5
45383;DHT22;42455;51.660;5.824;2023-12-20T15:20:03;10.4;98.5
45383;DHT22;42455;51.660;5.824;2023-12-20T15:25:10;10.4;98.5
45383;DHT22;42455;51.660;5.824;2023-12-20T15:30:16;10.4;98.5
45383;DHT22;42455;51.660;5.824;2023-12-20T15:35:22;10.4;98.5
45383;DHT22;42455;51.660;5.824;2023-12-20T15:40:28;10.4;98.5
45383;DHT22;42455;51.660;5.824;2023-12-20T15:45:34;10.4;98.5
45383;DHT22;42455;51.660;5.824;2023-12-20T15:50:41;10.4;98.5
45383;DHT22;42455;51.660;5.824;2023-12-20T15:55:47;10.4;98.5
45383;DHT22;42455;51.660;5.824;2023-12-20T16:00:53;10.4;98.5
45383;DHT22;42455;51.660;5.824;2023-12-20T16:05:58;10.4;98.5
45383;DHT22;42455;51.660;5.824;2023-12-20T16:11:04;10.4;98.5
45383;DHT22;42455;51.660;5.824;2023-12-20T16:16:10;10.3;98.5
45383;DHT22;42455;51.660;5.824;2023-12-20T16:21:17;10.4;98.5
45383;DHT22;42455;51.660;5.824;2023-12-20T16:26:23;10.4;98.5
45383;DHT22;42455;51.660;5.824;2023-12-20T16:31:29;10.3;98.5
45383;DHT22;42455;51.660;5.824;2023-12-20T16:36:53;10.3;98.5
45383;DHT22;42455;51.660;5.824;2023-12-20T16:41:41;10.3;98.5
45383;DHT22;42455;51.660;5.824;2023-12-20T16:51:54;10.3;98.5
45383;DHT22;42455;51.660;5.824;2023-12-20T16:57:00;10.3;98.5
45383;DHT22;42455;51.660;5.824;2023-12-20T17:02:06;10.3;98.5
45383;DHT22;42455;51.660;5.824;2023-12-20T17:07:13;10.4;98.5
45383;DHT22;42455;51.660;5.824;2023-12-20T17:12:19;10.4;98.5
45383;DHT22;42455;51.660;5.824;2023-12-20T17:17:25;10.4;98.5
45383;DHT22;42455;51.660;5.824;2023-12-20T17:22:31;10.4;98.5
45383;DHT22;42455;51.660;5.824;2023-12-20T17:27:37;10.4;98.5
45383;DHT22;42455;51.660;5.824;2023-12-20T17:32:44;10.4;98.5
45383;DHT22;42455;51.660;5.824;2023-12-20T17:37:50;10.5;98.5
45383;DHT22;42455;51.660;5.824;2023-12-20T17:42:56;10.5;98.5
45383;DHT22;42455;51.660;5.824;2023-12-20T17:48:02;10.5;98.5
45383;DHT22;42455;51.660;5.824;2023-12-20T17:53:09;10.5;98.5
45383;DHT22;42455;51.660;5.824;2023-12-20T17:58:15;10.4;98.5
45383;DHT22;42455;51.660;5.824;2023-12-20T18:03:21;10.4;98.5
45383;DHT22;42455;51.660;5.824;2023-12-20T18:08:27;10.4;98.5
45383;DHT22;42455;51.660;5.824;2023-12-20T18:13:34;10.4;98.5
45383;DHT22;42455;51.660;5.824;2023-12-20T18:18:39;10.4;98.5
45383;DHT22;42455;51.660;5.824;2023-12-20T18:28:52;10.4;98.5
45383;DHT22;42455;51.660;5.824;2023-12-20T18:33:58;10.4;98.5
45383;DHT22;42455;51.660;5.824;2023-12-20T18:39:04;10.4;98.5
45383;DHT22;42455;51.660;5.824;2023-12-20T18:44:11;10.4;98.5
45383;DHT22;42455;51.660;5.824;2023-12-20T18:49:17;10.5;98.5
45383;DHT22;42455;51.660;5.824;2023-12-20T18:54:23;10.5;98.5
45383;DHT22;42455;51.660;5.824;2023-12-20T18:59:29;10.5;98.5
45383;DHT22;42455;51.660;5.824;2023-12-20T19:04:35;10.5;98.5
45383;DHT22;42455;51.660;5.824;2023-12-20T19:09:42;10.6;98.5
45383;DHT22;42455;51.660;5.824;2023-12-20T19:14:48;10.6;98.5
45383;DHT22;42455;51.660;5.824;2023-12-20T19:19:54;10.6;98.5
45383;DHT22;42455;51.660;5.824;2023-12-20T19:25:00;10.7;98.5
45383;DHT22;42455;51.660;5.824;2023-12-20T19:30:07;10.7;98.5
45383;DHT22;42455;51.660;5.824;2023-12-20T19:35:13;10.7;98.5
45383;DHT22;42455;51.660;5.824;2023-12-20T19:40:19;10.8;98.5
45383;DHT22;42455;51.660;5.824;2023-12-20T19:45:25;10.8;98.5
45383;DHT22;42455;51.660;5.824;2023-12-20T19:50:31;10.8;98.5
45383;DHT22;42455;51.660;5.824;2023-12-20T19:55:37;10.9;98.5
45383;DHT22;42455;51.660;5.824;2023-12-20T20:00:44;10.9;98.5
45383;DHT22;42455;51.660;5.824;2023-12-20T20:05:50;10.9;98.5
45383;DHT22;42455;51.660;5.824;2023-12-20T20:10:56;10.9;98.5
45383;DHT22;42455;51.660;5.824;2023-12-20T20:16:03;10.9;98.5
45383;DHT22;42455;51.660;5.824;2023-12-20T20:21:08;11.0;98.5
45383;DHT22;42455;51.660;5.824;2023-12-20T20:26:15;11.0;98.5
45383;DHT22;42455;51.660;5.824;2023-12-20T20:31:21;11.0;98.5
45383;DHT22;42455;51.660;5.824;2023-12-20T20:36:27;11.1;98.5
45383;DHT22;42455;51.660;5.824;2023-12-20T20:41:33;11.1;98.5
45383;DHT22;42455;51.660;5.824;2023-12-20T20:46:40;11.1;98.5
45383;DHT22;42455;51.660;5.824;2023-12-20T20:51:46;11.1;98.5
45383;DHT22;42455;51.660;5.824;2023-12-20T20:56:52;11.1;98.5
45383;DHT22;42455;51.660;5.824;2023-12-20T21:01:58;11.1;98.5
45383;DHT22;42455;51.660;5.824;2023-12-20T21:07:04;11.1;98.5
45383;DHT22;42455;51.660;5.824;2023-12-20T21:12:11;11.2;98.5
45383;DHT22;42455;51.660;5.824;2023-12-20T21:17:17;11.1;98.5
45383;DHT22;42455;51.660;5.824;2023-12-20T21:22:23;11.1;98.5
45383;DHT22;42455;51.660;5.824;2023-12-20T21:27:29;11.1;98.5
45383;DHT22;42455;51.660;5.824;2023-12-20T21:32:35;11.1;98.5
45383;DHT22;42455;51.660;5.824;2023-12-20T21:37:41;11.1;98.5
45383;DHT22;42455;51.660;5.824;2023-12-20T21:42:47;11.1;98.5
45383;DHT22;42455;51.660;5.824;2023-12-20T21:47:53;11.1;98.5
45383;DHT22;42455;51.660;5.824;2023-12-20T21:52:59;11.1;98.5
45383;DHT22;42455;51.660;5.824;2023-12-20T21:58:05;11.1;98.5
45383;DHT22;42455;51.660;5.824;2023-12-20T22:03:12;11.1;98.5
45383;DHT22;42455;51.660;5.824;2023-12-20T22:08:17;11.1;98.5
45383;DHT22;42455;51.660;5.824;2023-12-20T22:13:23;11.1;98.5
45383;DHT22;42455;51.660;5.824;2023-12-20T22:23:36;11.1;98.5
45383;DHT22;42455;51.660;5.824;2023-12-20T22:28:42;11.1;98.5
45383;DHT22;42455;51.660;5.824;2023-12-20T22:33:48;11.1;98.5
45383;DHT22;42455;51.660;5.824;2023-12-20T22:38:54;11.2;98.5
45383;DHT22;42455;51.660;5.824;2023-12-20T22:44:00;11.2;98.5
45383;DHT22;42455;51.660;5.824;2023-12-20T22:49:07;11.2;98.5
45383;DHT22;42455;51.660;5.824;2023-12-20T22:54:13;11.2;98.5
45383;DHT22;42455;51.660;5.824;2023-12-20T22:59:19;11.2;98.5
45383;DHT22;42455;51.660;5.824;2023-12-20T23:04:25;11.2;98.5
45383;DHT22;42455;51.660;5.824;2023-12-20T23:09:32;11.3;98.5
45383;DHT22;42455;51.660;5.824;2023-12-20T23:14:38;11.3;98.5
45383;DHT22;42455;51.660;5.824;2023-12-20T23:19:44;11.3;98.5
45383;DHT22;42455;51.660;5.824;2023-12-20T23:24:50;11.3;98.5
45383;DHT22;42455;51.660;5.824;2023-12-20T23:29:56;11.3;98.5
45383;DHT22;42455;51.660;5.824;2023-12-20T23:35:03;11.3;98.5
45383;DHT22;42455;51.660;5.824;2023-12-20T23:40:09;11.4;98.5
45383;DHT22;42455;51.660;5.824;2023-12-20T23:45:15;11.4;98.5
45383;DHT22;42455;51.660;5.824;2023-12-20T23:50:21;11.4;98.5
45383;DHT22;42455;51.660;5.824;2023-12-20T23:55:27;11.4;98.5
